createdAt,value
2023-02-27T00:01:43.748Z,52.65
2023-02-27T00:04:12.095Z,53.54
2023-02-27T00:06:40.027Z,53.43
2023-02-27T00:09:08.679Z,52.22
2023-02-27T00:11:38.740Z,52.61
2023-02-27T00:14:06.975Z,52.91
2023-02-27T00:16:35.100Z,53.00
2023-02-27T00:19:05.055Z,54.59
2023-02-27T00:21:34.729Z,53.67
2023-02-27T00:24:04.863Z,51.97
2023-02-27T00:26:32.885Z,52.30
2023-02-27T00:29:00.831Z,53.83
2023-02-27T00:31:29.475Z,53.06
2023-02-27T00:33:57.681Z,52.54
2023-02-27T00:36:25.703Z,52.35
2023-02-27T00:38:54.187Z,53.25
2023-02-27T00:41:22.108Z,52.98
2023-02-27T00:43:50.147Z,54.63
2023-02-27T00:46:19.960Z,54.99
2023-02-27T00:48:48.025Z,54.29
2023-02-27T00:51:15.905Z,54.76
2023-02-27T00:53:44.225Z,55.42
2023-02-27T00:56:13.334Z,54.08
2023-02-27T00:58:41.509Z,53.60
2023-02-27T01:01:09.918Z,53.63
2023-02-27T01:03:37.856Z,52.80
2023-02-27T01:06:06.196Z,54.50
2023-02-27T01:08:34.839Z,56.29
2023-02-27T01:11:06.208Z,54.23
2023-02-27T01:13:34.625Z,54.99
2023-02-27T01:16:02.641Z,54.32
2023-02-27T01:18:30.663Z,54.06
2023-02-27T01:20:59.204Z,54.78
2023-02-27T01:23:27.283Z,55.49
2023-02-27T01:25:55.253Z,58.20
2023-02-27T01:28:23.634Z,55.95
2023-02-27T01:30:51.676Z,55.81
2023-02-27T01:33:19.726Z,54.69
2023-02-27T01:35:48.046Z,55.25
2023-02-27T01:38:16.093Z,56.76
2023-02-27T01:40:44.325Z,56.58
2023-02-27T01:43:18.121Z,55.26
2023-02-27T01:45:48.909Z,55.47
2023-02-27T01:48:27.014Z,56.32
2023-02-27T01:51:19.296Z,53.87
2023-02-27T01:53:49.996Z,55.10
2023-02-27T01:56:25.052Z,54.57
2023-02-27T01:58:58.773Z,55.14
2023-02-27T02:01:27.354Z,53.52
2023-02-27T02:04:02.965Z,53.61
2023-02-27T02:06:36.014Z,54.10
2023-02-27T02:09:07.285Z,54.33
2023-02-27T02:11:35.308Z,54.46
2023-02-27T02:14:04.711Z,53.98
2023-02-27T02:16:57.022Z,54.33
2023-02-27T02:19:44.050Z,53.88
2023-02-27T02:22:49.954Z,52.83
2023-02-27T02:25:37.451Z,53.52
2023-02-27T02:28:12.403Z,52.80
2023-02-27T02:31:15.282Z,52.64
2023-02-27T02:34:01.921Z,51.72
2023-02-27T02:36:40.763Z,54.15
2023-02-27T02:39:36.441Z,53.69
2023-02-27T02:42:10.953Z,52.43
2023-02-27T02:45:08.794Z,52.80
2023-02-27T02:47:55.725Z,52.97
2023-02-27T02:50:44.474Z,53.71
2023-02-27T02:53:37.779Z,52.54
2023-02-27T02:56:12.575Z,54.73
2023-02-27T02:59:25.798Z,53.47
2023-02-27T03:01:58.751Z,55.11
2023-02-27T03:04:31.857Z,55.00
2023-02-27T03:07:07.362Z,53.09
2023-02-27T03:10:01.329Z,52.50
2023-02-27T03:12:30.282Z,53.28
2023-02-27T03:15:17.464Z,52.98
2023-02-27T03:17:53.182Z,54.81
2023-02-27T03:20:26.958Z,52.92
2023-02-27T03:22:57.861Z,54.00
2023-02-27T03:25:29.429Z,53.78
2023-02-27T03:28:01.276Z,56.56
2023-02-27T03:30:41.835Z,55.97
2023-02-27T03:33:15.777Z,54.11
2023-02-27T03:35:58.418Z,54.64
2023-02-27T03:38:36.145Z,55.50
2023-02-27T03:41:16.799Z,55.25
2023-02-27T03:43:52.534Z,54.53
2023-02-27T03:46:26.886Z,55.18
2023-02-27T03:48:55.022Z,55.53
2023-02-27T03:51:25.239Z,57.34
2023-02-27T03:54:02.817Z,55.01
2023-02-27T03:56:51.454Z,54.73
2023-02-27T03:59:19.584Z,54.48
2023-02-27T04:01:48.478Z,54.78
2023-02-27T04:04:18.216Z,54.83
2023-02-27T04:07:24.447Z,54.25
2023-02-27T04:10:03.087Z,53.92
2023-02-27T04:12:53.500Z,53.91
2023-02-27T04:15:47.933Z,53.76
2023-02-27T04:18:35.398Z,54.02
2023-02-27T04:21:21.248Z,57.65
2023-02-27T04:24:15.238Z,58.11
2023-02-27T04:26:57.516Z,58.00
2023-02-27T04:29:37.468Z,57.33
2023-02-27T04:32:17.879Z,57.90
2023-02-27T04:34:59.414Z,54.68
2023-02-27T04:37:30.332Z,55.27
2023-02-27T04:40:01.911Z,54.93
2023-02-27T04:42:33.349Z,55.03
2023-02-27T04:45:06.868Z,55.87
2023-02-27T04:47:48.482Z,54.13
2023-02-27T04:50:24.282Z,54.75
2023-02-27T04:53:18.309Z,55.52
2023-02-27T04:55:52.254Z,54.64
2023-02-27T04:58:27.364Z,55.23
2023-02-27T05:01:04.166Z,55.72
2023-02-27T05:03:35.466Z,55.57
2023-02-27T05:06:03.973Z,53.79
2023-02-27T05:08:37.161Z,56.31
2023-02-27T05:11:29.542Z,55.80
2023-02-27T05:14:04.379Z,53.84
2023-02-27T05:17:01.040Z,53.16
2023-02-27T05:19:31.572Z,54.19
2023-02-27T05:22:24.776Z,54.34
2023-02-27T05:25:11.402Z,54.14
2023-02-27T05:27:47.801Z,54.17
2023-02-27T05:30:24.269Z,53.68
2023-02-27T05:33:04.171Z,53.79
2023-02-27T05:35:38.967Z,53.97
2023-02-27T05:38:32.285Z,53.69
2023-02-27T05:41:04.948Z,54.26
2023-02-27T05:43:37.178Z,58.05
2023-02-27T05:46:11.142Z,58.00
2023-02-27T05:48:43.106Z,55.43
2023-02-27T05:51:12.586Z,53.52
2023-02-27T05:53:49.178Z,54.09
2023-02-27T05:56:19.327Z,55.53
2023-02-27T05:59:02.859Z,55.17
2023-02-27T06:01:31.316Z,56.56
2023-02-27T06:03:59.704Z,55.59
2023-02-27T06:06:30.368Z,55.56
2023-02-27T06:08:58.411Z,55.96
2023-02-27T06:11:26.774Z,58.02
2023-02-27T06:13:54.753Z,55.58
2023-02-27T06:16:22.710Z,57.61
2023-02-27T06:18:51.135Z,57.19
2023-02-27T06:21:19.355Z,55.46
2023-02-27T06:23:47.354Z,55.17
2023-02-27T06:26:16.005Z,56.58
2023-02-27T06:28:44.032Z,54.47
2023-02-27T06:31:12.103Z,54.68
2023-02-27T06:33:40.471Z,54.34
2023-02-27T06:36:08.621Z,54.95
2023-02-27T06:38:37.464Z,54.46
2023-02-27T06:41:06.101Z,54.01
2023-02-27T06:43:35.139Z,54.51
2023-02-27T06:46:03.149Z,53.02
2023-02-27T06:48:31.685Z,53.94
2023-02-27T06:50:59.737Z,50.97
2023-02-27T06:53:27.742Z,50.99
2023-02-27T06:55:57.974Z,50.74
2023-02-27T06:58:25.955Z,49.88
2023-02-27T07:00:54.081Z,50.47
2023-02-27T07:03:22.372Z,52.33
2023-02-27T07:05:50.606Z,50.42
2023-02-27T07:08:18.565Z,51.08
2023-02-27T07:10:49.290Z,49.04
2023-02-27T07:13:19.620Z,48.04
2023-02-27T07:15:48.488Z,49.00
2023-02-27T07:18:16.582Z,46.07
2023-02-27T07:20:44.566Z,46.80
2023-02-27T07:23:12.981Z,47.21
2023-02-27T07:25:41.152Z,49.90
2023-02-27T07:28:09.263Z,50.50
2023-02-27T07:30:37.754Z,49.56
2023-02-27T07:33:06.296Z,46.13
2023-02-27T07:35:34.270Z,44.99
2023-02-27T07:38:02.884Z,47.26
2023-02-27T07:40:31.117Z,45.34
2023-02-27T07:42:59.110Z,44.85
2023-02-27T07:45:28.949Z,43.00
2023-02-27T07:47:56.961Z,44.47
2023-02-27T07:50:25.284Z,42.32
2023-02-27T07:52:53.860Z,40.78
2023-02-27T07:55:22.202Z,40.55
2023-02-27T07:57:50.250Z,38.51
2023-02-27T08:00:19.149Z,38.30
2023-02-27T08:02:47.967Z,41.21
2023-02-27T08:05:16.127Z,41.60
2023-02-27T08:07:44.182Z,40.53
2023-02-27T08:10:13.232Z,40.90
2023-02-27T08:12:41.440Z,37.80
2023-02-27T08:15:10.115Z,38.63
2023-02-27T08:17:40.218Z,39.88
2023-02-27T08:20:11.577Z,41.27
2023-02-27T08:22:40.946Z,39.92
2023-02-27T08:25:11.528Z,38.32
2023-02-27T08:27:42.016Z,39.40
2023-02-27T08:30:13.239Z,39.18
2023-02-27T08:32:43.297Z,39.95
2023-02-27T08:35:11.765Z,40.60
2023-02-27T08:37:39.954Z,42.17
2023-02-27T08:40:11.223Z,42.42
2023-02-27T08:42:39.569Z,39.13
2023-02-27T08:45:10.126Z,39.33
2023-02-27T08:47:38.687Z,37.38
2023-02-27T08:50:14.050Z,40.13
2023-02-27T08:52:42.603Z,40.06
2023-02-27T08:55:11.084Z,40.37
2023-02-27T08:57:41.154Z,39.67
2023-02-27T09:00:10.890Z,39.31
2023-02-27T09:02:39.042Z,37.93
2023-02-27T09:05:07.586Z,40.10
2023-02-27T09:07:36.166Z,38.44
2023-02-27T09:10:06.058Z,39.20
2023-02-27T09:12:34.194Z,38.10
2023-02-27T09:15:02.642Z,37.89
2023-02-27T09:17:30.728Z,38.32
2023-02-27T09:19:59.038Z,38.29
2023-02-27T09:22:27.567Z,37.70
2023-02-27T09:24:56.286Z,39.07
2023-02-27T09:27:24.493Z,38.55
2023-02-27T09:29:55.745Z,38.30
2023-02-27T09:32:24.307Z,40.48
2023-02-27T09:34:52.988Z,38.08
2023-02-27T09:37:21.086Z,40.42
2023-02-27T09:39:49.186Z,38.34
2023-02-27T09:42:26.208Z,39.51
2023-02-27T09:45:01.135Z,38.82
2023-02-27T09:47:35.775Z,39.56
2023-02-27T09:50:06.825Z,39.13
2023-02-27T09:52:39.825Z,38.55
2023-02-27T09:55:16.364Z,39.43
2023-02-27T09:57:56.652Z,40.04
2023-02-27T10:00:53.277Z,40.24
2023-02-27T10:03:34.029Z,37.61
2023-02-27T10:06:21.025Z,37.09
2023-02-27T10:09:18.905Z,38.04
2023-02-27T10:12:25.119Z,37.03
2023-02-27T10:15:10.831Z,37.66
2023-02-27T10:18:25.435Z,38.88
2023-02-27T10:20:57.744Z,38.94
2023-02-27T10:23:36.569Z,36.94
2023-02-27T10:26:05.374Z,38.22
2023-02-27T10:28:33.736Z,36.35
2023-02-27T10:31:02.623Z,37.49
2023-02-27T10:33:42.510Z,37.81
2023-02-27T10:36:23.581Z,39.22
2023-02-27T10:39:25.200Z,39.85
2023-02-27T10:41:55.928Z,40.91
2023-02-27T10:44:24.928Z,38.34
2023-02-27T10:46:53.411Z,38.38
2023-02-27T10:49:22.726Z,38.27
2023-02-27T10:52:13.158Z,38.36
2023-02-27T10:54:43.398Z,37.35
2023-02-27T10:57:30.272Z,39.37
2023-02-27T11:00:00.710Z,37.55
2023-02-27T11:02:55.386Z,36.55
2023-02-27T11:05:34.685Z,36.48
2023-02-27T11:08:26.135Z,37.96
2023-02-27T11:11:00.259Z,36.71
2023-02-27T11:13:32.680Z,36.67
2023-02-27T11:16:04.854Z,39.08
2023-02-27T11:18:34.644Z,37.23
2023-02-27T11:21:15.756Z,36.97
2023-02-27T11:23:54.918Z,38.79
2023-02-27T11:26:35.610Z,37.67
2023-02-27T11:29:12.027Z,37.96
2023-02-27T11:31:40.243Z,37.68
2023-02-27T11:34:39.252Z,37.02
2023-02-27T11:37:19.451Z,39.05
2023-02-27T11:39:53.522Z,36.89
2023-02-27T11:42:31.887Z,37.05
2023-02-27T11:45:01.252Z,34.21
2023-02-27T11:47:38.249Z,35.23
2023-02-27T11:50:30.282Z,34.45
2023-02-27T11:53:35.318Z,33.28
2023-02-27T11:56:07.507Z,32.11
2023-02-27T11:59:00.117Z,30.25
2023-02-27T12:01:32.433Z,32.50
2023-02-27T12:04:00.938Z,29.72
2023-02-27T12:06:37.610Z,28.90
2023-02-27T12:09:14.278Z,28.78
2023-02-27T12:11:44.892Z,29.31
2023-02-27T12:14:29.171Z,29.70
2023-02-27T12:17:07.368Z,31.19
2023-02-27T12:20:06.328Z,29.69
2023-02-27T12:22:38.906Z,31.08
2023-02-27T12:25:12.723Z,31.74
2023-02-27T12:27:54.355Z,32.25
2023-02-27T12:30:26.210Z,35.69
2023-02-27T12:33:00.223Z,35.18
2023-02-27T12:35:31.591Z,35.53
2023-02-27T12:38:00.166Z,32.85
2023-02-27T12:40:37.998Z,30.46
2023-02-27T12:43:34.453Z,33.79
2023-02-27T12:46:07.314Z,32.81
2023-02-27T12:48:51.584Z,31.73
2023-02-27T12:51:38.807Z,30.43
2023-02-27T12:54:46.526Z,34.95
2023-02-27T12:57:19.296Z,35.35
2023-02-27T13:00:02.773Z,34.41
2023-02-27T13:02:43.271Z,34.57
2023-02-27T13:05:36.888Z,35.46
2023-02-27T13:08:45.256Z,35.05
2023-02-27T13:11:35.264Z,33.96
2023-02-27T13:14:31.854Z,33.93
2023-02-27T13:17:12.176Z,32.42
2023-02-27T13:19:57.281Z,35.67
2023-02-27T13:22:29.486Z,33.65
2023-02-27T13:25:02.323Z,32.88
2023-02-27T13:27:40.889Z,31.53
2023-02-27T13:30:21.456Z,31.47
2023-02-27T13:33:23.607Z,32.91
2023-02-27T13:35:58.713Z,31.90
2023-02-27T13:38:30.006Z,32.01
2023-02-27T13:41:01.271Z,31.33
2023-02-27T13:43:51.478Z,34.24
2023-02-27T13:46:29.370Z,32.41
2023-02-27T13:49:10.708Z,35.96
2023-02-27T13:51:54.359Z,32.40
2023-02-27T13:54:33.543Z,35.20
2023-02-27T13:57:06.419Z,35.16
2023-02-27T13:59:39.916Z,34.76
2023-02-27T14:02:11.619Z,34.27
2023-02-27T14:04:45.960Z,34.37
2023-02-27T14:07:19.037Z,33.79
2023-02-27T14:09:50.728Z,32.00
2023-02-27T14:12:45.883Z,35.34
2023-02-27T14:15:18.001Z,38.34
2023-02-27T14:17:47.386Z,38.94
2023-02-27T14:20:24.597Z,37.69
2023-02-27T14:23:19.417Z,34.52
2023-02-27T14:25:48.489Z,33.43
2023-02-27T14:28:34.558Z,32.48
2023-02-27T14:31:09.412Z,35.58
2023-02-27T14:33:54.495Z,34.25
2023-02-27T14:36:30.863Z,33.94
2023-02-27T14:39:00.542Z,34.89
2023-02-27T14:42:22.801Z,34.40
2023-02-27T14:44:53.435Z,34.94
2023-02-27T14:47:29.797Z,34.48
2023-02-27T14:49:58.101Z,34.76
2023-02-27T14:52:29.949Z,32.91
2023-02-27T14:55:33.485Z,32.59
2023-02-27T14:58:07.964Z,34.18
2023-02-27T15:00:40.410Z,32.85
2023-02-27T15:03:12.731Z,32.47
2023-02-27T15:05:40.978Z,34.89
2023-02-27T15:08:15.798Z,35.79
2023-02-27T15:10:45.374Z,35.12
2023-02-27T15:13:23.460Z,36.32
2023-02-27T15:15:54.176Z,36.44
2023-02-27T15:18:24.462Z,35.27
2023-02-27T15:21:01.487Z,35.68
2023-02-27T15:23:29.813Z,34.51
2023-02-27T15:25:58.801Z,34.70
2023-02-27T15:28:33.388Z,36.30
2023-02-27T15:31:01.998Z,36.42
2023-02-27T15:33:32.394Z,37.14
2023-02-27T15:36:02.448Z,37.27
2023-02-27T15:38:33.764Z,37.26
2023-02-27T15:41:03.039Z,37.34
2023-02-27T15:43:32.065Z,36.37
2023-02-27T15:46:00.389Z,37.07
2023-02-27T15:48:29.754Z,35.78
2023-02-27T15:50:59.611Z,36.98
2023-02-27T15:53:29.227Z,36.44
2023-02-27T15:56:00.006Z,35.84
2023-02-27T15:58:33.472Z,37.03
2023-02-27T16:01:04.975Z,37.55
2023-02-27T16:03:39.525Z,38.72
2023-02-27T16:06:13.036Z,41.33
2023-02-27T16:08:57.298Z,41.70
2023-02-27T16:11:31.771Z,39.73
2023-02-27T16:14:00.787Z,41.13
2023-02-27T16:16:36.471Z,41.74
2023-02-27T16:19:28.118Z,42.81
2023-02-27T16:22:27.516Z,42.05
2023-02-27T16:25:08.277Z,44.31
2023-02-27T16:27:36.448Z,43.21
2023-02-27T16:30:12.534Z,42.33
2023-02-27T16:32:44.318Z,42.64
2023-02-27T16:35:19.144Z,44.87
2023-02-27T16:37:48.217Z,46.67
2023-02-27T16:40:25.027Z,43.96
2023-02-27T16:42:53.170Z,46.57
2023-02-27T16:45:27.366Z,45.92
2023-02-27T16:48:00.179Z,46.21
2023-02-27T16:50:32.536Z,50.80
2023-02-27T16:53:00.813Z,45.95
2023-02-27T16:55:29.186Z,46.75
2023-02-27T16:57:57.377Z,46.92
2023-02-27T17:00:25.397Z,48.21
2023-02-27T17:02:53.766Z,51.20
2023-02-27T17:05:23.288Z,48.84
2023-02-27T17:07:51.293Z,51.09
2023-02-27T17:10:27.495Z,51.90
2023-02-27T17:12:55.459Z,53.45
2023-02-27T17:15:23.855Z,51.26
2023-02-27T17:17:51.905Z,51.90
2023-02-27T17:20:19.909Z,49.80
2023-02-27T17:22:48.426Z,53.65
2023-02-27T17:25:16.545Z,55.72
2023-02-27T17:27:44.922Z,55.37
2023-02-27T17:30:14.708Z,56.18
2023-02-27T17:32:42.942Z,52.68
2023-02-27T17:35:12.563Z,52.16
2023-02-27T17:37:40.924Z,52.31
2023-02-27T17:40:09.794Z,56.93
2023-02-27T17:42:39.449Z,57.26
2023-02-27T17:45:08.789Z,56.78
2023-02-27T17:47:36.824Z,55.95
2023-02-27T17:50:05.719Z,53.00
2023-02-27T17:52:37.529Z,50.82
2023-02-27T17:55:06.844Z,52.38
2023-02-27T17:57:36.753Z,49.98
2023-02-27T18:00:06.808Z,52.77
2023-02-27T18:02:36.354Z,52.33
2023-02-27T18:05:05.016Z,51.58
2023-02-27T18:07:34.879Z,51.80
2023-02-27T18:10:05.782Z,57.30
2023-02-27T18:12:34.268Z,53.45
2023-02-27T18:15:02.755Z,52.84
2023-02-27T18:17:31.528Z,55.27
2023-02-27T18:19:59.678Z,53.41
2023-02-27T18:22:30.079Z,56.26
2023-02-27T18:24:58.956Z,55.12
2023-02-27T18:27:28.391Z,54.86
2023-02-27T18:29:57.957Z,53.77
2023-02-27T18:32:26.411Z,55.56
2023-02-27T18:34:54.426Z,59.14
2023-02-27T18:37:22.572Z,55.75
2023-02-27T18:39:51.068Z,59.22
2023-02-27T18:42:19.107Z,57.38
2023-02-27T18:44:48.446Z,55.48
2023-02-27T18:47:16.931Z,55.47
2023-02-27T18:49:46.286Z,57.75
2023-02-27T18:52:14.366Z,55.76
2023-02-27T18:54:43.518Z,55.29
2023-02-27T18:57:11.675Z,57.67
2023-02-27T18:59:41.600Z,59.37
2023-02-27T19:02:14.660Z,57.16
2023-02-27T19:04:42.851Z,56.18
2023-02-27T19:07:11.310Z,55.08
2023-02-27T19:09:39.752Z,53.39
2023-02-27T19:12:08.218Z,52.23
2023-02-27T19:14:40.298Z,50.87
2023-02-27T19:17:09.092Z,50.19
2023-02-27T19:19:39.658Z,49.30
2023-02-27T19:22:07.647Z,50.12
2023-02-27T19:24:35.762Z,49.21
2023-02-27T19:27:04.322Z,49.10
2023-02-27T19:29:32.396Z,49.64
2023-02-27T19:32:02.338Z,49.04
2023-02-27T19:34:30.749Z,48.92
2023-02-27T19:36:58.739Z,49.41
2023-02-27T19:39:26.830Z,49.21
2023-02-27T19:41:55.251Z,48.61
2023-02-27T19:44:23.786Z,49.60
2023-02-27T19:46:53.274Z,49.38
2023-02-27T19:49:21.724Z,48.67
2023-02-27T19:51:49.698Z,48.69
2023-02-27T19:54:17.866Z,48.36
2023-02-27T19:56:46.344Z,50.26
2023-02-27T19:59:14.288Z,49.27
2023-02-27T20:01:42.442Z,49.18
2023-02-27T20:04:11.339Z,49.64
2023-02-27T20:06:42.476Z,49.16
2023-02-27T20:09:16.428Z,49.60
2023-02-27T20:11:45.865Z,49.71
2023-02-27T20:14:16.417Z,49.28
2023-02-27T20:16:45.048Z,48.81
2023-02-27T20:19:15.351Z,47.88
2023-02-27T20:21:44.672Z,47.64
2023-02-27T20:24:14.480Z,48.44
2023-02-27T20:26:47.720Z,47.74
2023-02-27T20:29:22.847Z,48.46
2023-02-27T20:31:52.383Z,48.40
2023-02-27T20:34:22.847Z,48.70
2023-02-27T20:36:51.535Z,48.92
2023-02-27T20:39:20.459Z,48.25
2023-02-27T20:41:49.040Z,49.83
2023-02-27T20:44:17.429Z,48.88
2023-02-27T20:46:47.043Z,48.67
2023-02-27T20:49:16.945Z,49.93
2023-02-27T20:51:45.385Z,48.62
2023-02-27T20:54:16.770Z,48.44
2023-02-27T20:56:45.261Z,49.27
2023-02-27T20:59:16.787Z,49.25
2023-02-27T21:01:51.987Z,49.26
2023-02-27T21:04:44.315Z,48.29
2023-02-27T21:07:14.222Z,48.11
2023-02-27T21:09:42.460Z,49.19
2023-02-27T21:12:10.675Z,48.91
2023-02-27T21:14:39.341Z,48.19
2023-02-27T21:17:07.290Z,49.66
2023-02-27T21:19:35.431Z,49.45
2023-02-27T21:22:04.122Z,48.92
2023-02-27T21:24:32.400Z,48.96
2023-02-27T21:27:00.438Z,48.97
2023-02-27T21:29:28.813Z,51.58
2023-02-27T21:31:56.846Z,51.88
2023-02-27T21:34:26.885Z,51.16
2023-02-27T21:36:55.867Z,49.55
2023-02-27T21:39:28.485Z,50.02
2023-02-27T21:41:56.838Z,51.18
2023-02-27T21:44:25.387Z,51.04
2023-02-27T21:46:54.179Z,50.87
2023-02-27T21:49:27.680Z,51.67
2023-02-27T21:51:56.657Z,50.41
2023-02-27T21:54:25.268Z,49.90
2023-02-27T21:56:53.260Z,49.53
2023-02-27T21:59:21.873Z,50.08
2023-02-27T22:01:50.269Z,49.84
2023-02-27T22:04:20.170Z,50.21
2023-02-27T22:06:49.555Z,49.74
2023-02-27T22:09:18.077Z,51.01
2023-02-27T22:11:46.685Z,49.79
2023-02-27T22:14:14.901Z,48.96
2023-02-27T22:16:43.077Z,49.23
2023-02-27T22:19:14.360Z,48.84
2023-02-27T22:21:42.376Z,48.91
2023-02-27T22:24:10.374Z,49.38
2023-02-27T22:26:38.684Z,48.57
2023-02-27T22:29:07.269Z,48.79
2023-02-27T22:31:37.602Z,49.36
2023-02-27T22:34:12.446Z,49.97
2023-02-27T22:36:41.949Z,52.50
2023-02-27T22:39:11.670Z,52.91
2023-02-27T22:41:42.894Z,54.39
2023-02-27T22:44:13.606Z,53.44
2023-02-27T22:46:47.525Z,51.28
2023-02-27T22:49:21.789Z,53.63
2023-02-27T22:51:51.725Z,55.26
2023-02-27T22:54:21.878Z,56.58
2023-02-27T22:56:52.086Z,54.93
2023-02-27T22:59:21.136Z,51.62
2023-02-27T23:01:50.651Z,50.04
2023-02-27T23:04:18.972Z,51.66
2023-02-27T23:06:47.339Z,50.49
2023-02-27T23:09:19.705Z,51.15
2023-02-27T23:11:48.080Z,54.45
2023-02-27T23:14:16.603Z,54.19
2023-02-27T23:16:45.993Z,54.34
2023-02-27T23:19:19.765Z,51.79
2023-02-27T23:21:47.985Z,53.90
2023-02-27T23:24:18.471Z,52.71
2023-02-27T23:26:48.672Z,58.31
2023-02-27T23:29:17.488Z,56.59
2023-02-27T23:31:45.614Z,54.87
2023-02-27T23:34:13.745Z,59.03
2023-02-27T23:36:42.298Z,60.78
2023-02-27T23:39:10.293Z,62.21
2023-02-27T23:41:38.268Z,59.36
2023-02-27T23:44:25.396Z,59.96
2023-02-27T23:46:53.355Z,57.37
2023-02-27T23:49:21.747Z,60.78
2023-02-27T23:51:49.803Z,57.82
2023-02-27T23:54:17.709Z,58.69
2023-02-27T23:56:47.820Z,62.75
2023-02-27T23:59:15.843Z,58.77
